sensor_id;sensor_type;location;lat;lon;timestamp;pressure;altitude;pressure_sealevel;temperature;humidity
77871;BME280;67067;46.850;7.578;2023-11-21T00:00:17;94926.69;;;7.73;41.86
77871;BME280;67067;46.850;7.578;2023-11-21T00:01:19;94931.25;;;7.78;41.38
77871;BME280;67067;46.850;7.578;2023-11-21T00:02:21;94936.03;;;7.81;41.15
77871;BME280;67067;46.850;7.578;2023-11-21T00:03:23;94933.97;;;7.83;41.22
77871;BME280;67067;46.850;7.578;2023-11-21T00:04:25;94928.88;;;7.76;40.99
77871;BME280;67067;46.850;7.578;2023-11-21T00:05:29;94914.34;;;7.74;41.39
77871;BME280;67067;46.850;7.578;2023-11-21T00:06:31;94923.84;;;7.75;41.28
77871;BME280;67067;46.850;7.578;2023-11-21T00:07:33;94932.38;;;7.82;41.10
77871;BME280;67067;46.850;7.578;2023-11-21T00:08:35;94916.88;;;7.86;41.25
77871;BME280;67067;46.850;7.578;2023-11-21T00:09:41;94923.41;;;7.83;40.89
77871;BME280;67067;46.850;7.578;2023-11-21T00:10:45;94926.06;;;7.83;40.80
77871;BME280;67067;46.850;7.578;2023-11-21T00:11:47;94922.44;;;7.89;40.76
77871;BME280;67067;46.850;7.578;2023-11-21T00:12:51;94927.28;;;7.75;40.71
77871;BME280;67067;46.850;7.578;2023-11-21T00:13:53;94917.66;;;7.86;40.78
77871;BME280;67067;46.850;7.578;2023-11-21T00:14:55;94914.00;;;7.87;40.23
77871;BME280;67067;46.850;7.578;2023-11-21T00:15:59;94916.16;;;7.90;40.62
77871;BME280;67067;46.850;7.578;2023-11-21T00:17:01;94920.16;;;7.93;40.48
77871;BME280;67067;46.850;7.578;2023-11-21T00:18:05;94914.97;;;7.81;40.94
77871;BME280;67067;46.850;7.578;2023-11-21T00:19:12;94913.50;;;7.90;41.05
77871;BME280;67067;46.850;7.578;2023-11-21T00:20:14;94910.16;;;7.95;40.45
77871;BME280;67067;46.850;7.578;2023-11-21T00:21:15;94921.34;;;7.85;41.06
77871;BME280;67067;46.850;7.578;2023-11-21T00:22:17;94906.22;;;7.98;40.55
77871;BME280;67067;46.850;7.578;2023-11-21T00:23:19;94909.97;;;8.02;40.28
77871;BME280;67067;46.850;7.578;2023-11-21T00:24:21;94911.91;;;7.89;40.63
77871;BME280;67067;46.850;7.578;2023-11-21T00:25:26;94914.47;;;8.01;39.70
77871;BME280;67067;46.850;7.578;2023-11-21T00:26:28;94912.72;;;7.90;40.27
77871;BME280;67067;46.850;7.578;2023-11-21T00:27:35;94910.94;;;7.96;40.13
77871;BME280;67067;46.850;7.578;2023-11-21T00:28:37;94907.59;;;8.00;39.39
77871;BME280;67067;46.850;7.578;2023-11-21T00:29:40;94909.34;;;7.95;39.74
77871;BME280;67067;46.850;7.578;2023-11-21T00:30:42;94916.47;;;7.94;40.24
77871;BME280;67067;46.850;7.578;2023-11-21T00:31:44;94905.22;;;7.82;40.44
77871;BME280;67067;46.850;7.578;2023-11-21T00:32:46;94914.00;;;7.87;40.30
77871;BME280;67067;46.850;7.578;2023-11-21T00:33:50;94909.84;;;7.91;40.32
77871;BME280;67067;46.850;7.578;2023-11-21T00:34:52;94907.75;;;7.94;40.50
77871;BME280;67067;46.850;7.578;2023-11-21T00:35:56;94904.06;;;7.95;40.39
77871;BME280;67067;46.850;7.578;2023-11-21T00:36:58;94904.81;;;7.90;40.16
77871;BME280;67067;46.850;7.578;2023-11-21T00:38:00;94903.22;;;7.89;40.54
77871;BME280;67067;46.850;7.578;2023-11-21T00:39:02;94899.78;;;7.88;40.03
77871;BME280;67067;46.850;7.578;2023-11-21T00:40:05;94902.97;;;7.90;40.05
77871;BME280;67067;46.850;7.578;2023-11-21T00:41:09;94897.41;;;7.87;40.13
77871;BME280;67067;46.850;7.578;2023-11-21T00:42:11;94897.47;;;7.75;40.28
77871;BME280;67067;46.850;7.578;2023-11-21T00:43:12;94893.94;;;7.86;40.03
77871;BME280;67067;46.850;7.578;2023-11-21T00:44:14;94898.75;;;7.89;39.86
77871;BME280;67067;46.850;7.578;2023-11-21T00:45:17;94901.84;;;7.86;39.75
77871;BME280;67067;46.850;7.578;2023-11-21T00:46:21;94893.72;;;7.88;39.71
77871;BME280;67067;46.850;7.578;2023-11-21T00:47:26;94892.91;;;7.87;39.76
77871;BME280;67067;46.850;7.578;2023-11-21T00:48:28;94888.94;;;7.85;39.96
77871;BME280;67067;46.850;7.578;2023-11-21T00:49:30;94890.13;;;7.77;39.71
77871;BME280;67067;46.850;7.578;2023-11-21T00:50:32;94893.41;;;7.84;39.64
77871;BME280;67067;46.850;7.578;2023-11-21T00:51:34;94894.22;;;7.85;39.43
77871;BME280;67067;46.850;7.578;2023-11-21T00:52:38;94893.16;;;7.86;39.51
77871;BME280;67067;46.850;7.578;2023-11-21T00:53:40;94879.19;;;7.85;39.56
77871;BME280;67067;46.850;7.578;2023-11-21T00:54:42;94881.91;;;7.73;39.87
77871;BME280;67067;46.850;7.578;2023-11-21T00:55:44;94879.66;;;7.82;39.62
77871;BME280;67067;46.850;7.578;2023-11-21T00:56:46;94881.81;;;7.85;39.96
77871;BME280;67067;46.850;7.578;2023-11-21T00:57:49;94880.78;;;7.86;39.86
77871;BME280;67067;46.850;7.578;2023-11-21T00:58:51;94893.72;;;7.88;39.80
77871;BME280;67067;46.850;7.578;2023-11-21T00:59:56;94880.06;;;7.91;39.91
77871;BME280;67067;46.850;7.578;2023-11-21T01:00:58;94886.72;;;7.76;40.09
77871;BME280;67067;46.850;7.578;2023-11-21T01:02:00;94877.59;;;7.84;40.28
77871;BME280;67067;46.850;7.578;2023-11-21T01:03:06;94882.31;;;7.82;40.36
77871;BME280;67067;46.850;7.578;2023-11-21T01:04:09;94883.13;;;7.83;39.77
77871;BME280;67067;46.850;7.578;2023-11-21T01:05:12;94878.63;;;7.83;40.04
77871;BME280;67067;46.850;7.578;2023-11-21T01:06:15;94871.84;;;7.87;39.85
77871;BME280;67067;46.850;7.578;2023-11-21T01:07:19;94881.81;;;7.85;39.97
77871;BME280;67067;46.850;7.578;2023-11-21T01:08:25;94876.31;;;7.87;39.85
77871;BME280;67067;46.850;7.578;2023-11-21T01:09:26;94872.09;;;7.86;40.01
77871;BME280;67067;46.850;7.578;2023-11-21T01:10:29;94872.38;;;7.89;39.92
77871;BME280;67067;46.850;7.578;2023-11-21T01:11:31;94869.75;;;7.89;39.72
77871;BME280;67067;46.850;7.578;2023-11-21T01:12:37;94868.97;;;7.89;39.75
77871;BME280;67067;46.850;7.578;2023-11-21T01:13:40;94857.47;;;7.95;39.62
77871;BME280;67067;46.850;7.578;2023-11-21T01:14:42;94860.81;;;7.90;39.65
77871;BME280;67067;46.850;7.578;2023-11-21T01:15:44;94862.41;;;7.91;39.53
77871;BME280;67067;46.850;7.578;2023-11-21T01:16:45;94856.09;;;7.92;39.16
77871;BME280;67067;46.850;7.578;2023-11-21T01:17:47;94861.69;;;7.96;39.12
77871;BME280;67067;46.850;7.578;2023-11-21T01:18:49;94870.56;;;7.90;39.30
77871;BME280;67067;46.850;7.578;2023-11-21T01:19:51;94869.63;;;7.79;39.77
77871;BME280;67067;46.850;7.578;2023-11-21T01:20:53;94866.88;;;7.91;39.58
77871;BME280;67067;46.850;7.578;2023-11-21T01:21:57;94866.97;;;7.96;39.08
77871;BME280;67067;46.850;7.578;2023-11-21T01:23:00;94871.97;;;7.98;39.42
77871;BME280;67067;46.850;7.578;2023-11-21T01:24:05;94861.44;;;7.98;39.27
77871;BME280;67067;46.850;7.578;2023-11-21T01:25:09;94866.97;;;7.96;39.12
77871;BME280;67067;46.850;7.578;2023-11-21T01:26:14;94862.25;;;7.98;38.93
77871;BME280;67067;46.850;7.578;2023-11-21T01:27:16;94856.97;;;7.98;39.18
77871;BME280;67067;46.850;7.578;2023-11-21T01:28:19;94859.06;;;7.96;39.11
77871;BME280;67067;46.850;7.578;2023-11-21T01:29:21;94857.75;;;7.99;39.11
77871;BME280;67067;46.850;7.578;2023-11-21T01:30:25;94861.75;;;8.01;39.19
77871;BME280;67067;46.850;7.578;2023-11-21T01:31:27;94867.56;;;8.03;39.28
77871;BME280;67067;46.850;7.578;2023-11-21T01:32:31;94858.38;;;8.06;39.47
77871;BME280;67067;46.850;7.578;2023-11-21T01:33:34;94856.31;;;8.08;39.54
77871;BME280;67067;46.850;7.578;2023-11-21T01:34:36;94858.06;;;8.02;39.07
77871;BME280;67067;46.850;7.578;2023-11-21T01:35:38;94861.75;;;8.01;39.43
77871;BME280;67067;46.850;7.578;2023-11-21T01:36:40;94857.81;;;8.04;39.39
77871;BME280;67067;46.850;7.578;2023-11-21T01:37:41;94858.03;;;7.80;39.55
77871;BME280;67067;46.850;7.578;2023-11-21T01:38:44;94864.00;;;7.92;39.66
77871;BME280;67067;46.850;7.578;2023-11-21T01:39:45;94856.84;;;7.88;39.67
77871;BME280;67067;46.850;7.578;2023-11-21T01:40:49;94860.38;;;7.99;39.61
77871;BME280;67067;46.850;7.578;2023-11-21T01:41:52;94850.94;;;8.03;39.39
77871;BME280;67067;46.850;7.578;2023-11-21T01:42:54;94855.88;;;7.94;39.74
77871;BME280;67067;46.850;7.578;2023-11-21T01:43:58;94853.78;;;7.96;39.62
77871;BME280;67067;46.850;7.578;2023-11-21T01:45:01;94847.47;;;7.97;39.93
77871;BME280;67067;46.850;7.578;2023-11-21T01:46:05;94852.19;;;7.95;39.82
77871;BME280;67067;46.850;7.578;2023-11-21T01:47:08;94856.50;;;7.84;40.59
77871;BME280;67067;46.850;7.578;2023-11-21T01:48:13;94850.75;;;7.87;40.42
77871;BME280;67067;46.850;7.578;2023-11-21T01:49:15;94851.78;;;7.86;40.26
77871;BME280;67067;46.850;7.578;2023-11-21T01:50:17;94842.91;;;7.92;40.40
77871;BME280;67067;46.850;7.578;2023-11-21T01:51:19;94850.25;;;7.90;40.53
77871;BME280;67067;46.850;7.578;2023-11-21T01:52:22;94845.56;;;7.92;40.47
77871;BME280;67067;46.850;7.578;2023-11-21T01:53:25;94849.56;;;7.95;40.71
77871;BME280;67067;46.850;7.578;2023-11-21T01:54:30;94847.97;;;7.94;40.86
77871;BME280;67067;46.850;7.578;2023-11-21T01:55:35;94846.66;;;7.97;40.95
77871;BME280;67067;46.850;7.578;2023-11-21T01:56:37;94851.38;;;7.95;40.76
77871;BME280;67067;46.850;7.578;2023-11-21T01:57:41;94851.94;;;7.97;40.81
77871;BME280;67067;46.850;7.578;2023-11-21T01:58:44;94848.75;;;7.95;40.82
77871;BME280;67067;46.850;7.578;2023-11-21T01:59:48;94847.22;;;7.99;41.04
77871;BME280;67067;46.850;7.578;2023-11-21T02:12:36;94817.25;;;7.83;41.76
77871;BME280;67067;46.850;7.578;2023-11-21T02:13:40;94817.88;;;7.90;41.58
77871;BME280;67067;46.850;7.578;2023-11-21T02:14:47;94813.09;;;7.87;41.54
77871;BME280;67067;46.850;7.578;2023-11-21T02:15:50;94817.53;;;7.86;41.75
77871;BME280;67067;46.850;7.578;2023-11-21T02:16:56;94814.97;;;7.91;41.69
77871;BME280;67067;46.850;7.578;2023-11-21T02:18:01;94811.78;;;7.89;41.56
77871;BME280;67067;46.850;7.578;2023-11-21T02:19:07;94807.31;;;7.90;41.42
77871;BME280;67067;46.850;7.578;2023-11-21T02:20:11;94811.28;;;7.92;41.49
77871;BME280;67067;46.850;7.578;2023-11-21T02:21:17;94808.91;;;7.91;41.41
77871;BME280;67067;46.850;7.578;2023-11-21T02:22:21;94806.84;;;7.93;41.40
77871;BME280;67067;46.850;7.578;2023-11-21T02:23:26;94808.59;;;7.87;41.68
77871;BME280;67067;46.850;7.578;2023-11-21T02:24:30;94802.16;;;7.78;41.60
77871;BME280;67067;46.850;7.578;2023-11-21T02:25:36;94806.31;;;7.74;41.74
77871;BME280;67067;46.850;7.578;2023-11-21T02:26:39;94804.00;;;7.77;41.83
77871;BME280;67067;46.850;7.578;2023-11-21T02:27:40;94797.78;;;7.67;41.92
77871;BME280;67067;46.850;7.578;2023-11-21T02:28:43;94803.47;;;7.75;41.87
77871;BME280;67067;46.850;7.578;2023-11-21T02:29:45;94798.66;;;7.72;42.05
77871;BME280;67067;46.850;7.578;2023-11-21T02:30:46;94804.03;;;7.60;42.12
77871;BME280;67067;46.850;7.578;2023-11-21T02:31:56;94804.66;;;7.68;42.02
77871;BME280;67067;46.850;7.578;2023-11-21T02:33:01;94810.72;;;7.68;42.23
77871;BME280;67067;46.850;7.578;2023-11-21T02:34:05;94799.41;;;7.68;42.38
77871;BME280;67067;46.850;7.578;2023-11-21T02:35:09;94805.78;;;7.72;42.26
77871;BME280;67067;46.850;7.578;2023-11-21T02:36:11;94803.63;;;7.69;42.28
77871;BME280;67067;46.850;7.578;2023-11-21T02:37:13;94812.25;;;7.64;42.49
77871;BME280;67067;46.850;7.578;2023-11-21T02:38:15;94809.31;;;7.60;42.56
77871;BME280;67067;46.850;7.578;2023-11-21T02:39:17;94807.53;;;7.66;41.91
77871;BME280;67067;46.850;7.578;2023-11-21T02:40:19;94807.22;;;7.62;41.91
77871;BME280;67067;46.850;7.578;2023-11-21T02:41:29;94808.28;;;7.61;41.55
77871;BME280;67067;46.850;7.578;2023-11-21T02:42:30;94809.38;;;7.66;41.52
77871;BME280;67067;46.850;7.578;2023-11-21T02:43:33;94815.72;;;7.30;41.83
77871;BME280;67067;46.850;7.578;2023-11-21T02:44:35;94809.09;;;7.45;41.84
77871;BME280;67067;46.850;7.578;2023-11-21T02:45:37;94810.75;;;7.51;41.58
77871;BME280;67067;46.850;7.578;2023-11-21T02:46:39;94810.56;;;7.58;41.46
77871;BME280;67067;46.850;7.578;2023-11-21T02:47:42;94814.31;;;7.62;41.24
77871;BME280;67067;46.850;7.578;2023-11-21T02:48:45;94806.97;;;7.64;41.08
77871;BME280;67067;46.850;7.578;2023-11-21T02:49:46;94821.78;;;7.48;41.25
77871;BME280;67067;46.850;7.578;2023-11-21T02:50:50;94814.31;;;7.62;41.08
77871;BME280;67067;46.850;7.578;2023-11-21T02:51:52;94817.69;;;7.57;41.34
77871;BME280;67067;46.850;7.578;2023-11-21T02:52:57;94820.75;;;7.49;41.58
77871;BME280;67067;46.850;7.578;2023-11-21T02:54:02;94811.94;;;7.60;41.91
77871;BME280;67067;46.850;7.578;2023-11-21T02:55:08;94819.28;;;7.58;42.20
77871;BME280;67067;46.850;7.578;2023-11-21T02:56:10;94818.97;;;7.55;42.25
77871;BME280;67067;46.850;7.578;2023-11-21T02:57:12;94817.69;;;7.57;42.22
77871;BME280;67067;46.850;7.578;2023-11-21T02:58:17;94816.31;;;7.55;42.64
77871;BME280;67067;46.850;7.578;2023-11-21T02:59:19;94816.50;;;7.48;43.07
77871;BME280;67067;46.850;7.578;2023-11-21T03:00:20;94824.16;;;7.32;43.34
77871;BME280;67067;46.850;7.578;2023-11-21T03:01:26;94826.38;;;7.41;43.25
77871;BME280;67067;46.850;7.578;2023-11-21T03:02:29;94827.91;;;7.37;43.13
77871;BME280;67067;46.850;7.578;2023-11-21T03:03:33;94825.94;;;7.27;43.47
77871;BME280;67067;46.850;7.578;2023-11-21T03:04:35;94826.25;;;7.30;43.24
77871;BME280;67067;46.850;7.578;2023-11-21T03:05:39;94825.22;;;7.31;43.64
77871;BME280;67067;46.850;7.578;2023-11-21T03:06:41;94819.22;;;7.19;44.30
77871;BME280;67067;46.850;7.578;2023-11-21T03:07:43;94827.22;;;7.24;44.40
77871;BME280;67067;46.850;7.578;2023-11-21T03:08:45;94821.78;;;7.14;44.74
77871;BME280;67067;46.850;7.578;2023-11-21T03:09:47;94832.94;;;7.21;44.62
77871;BME280;67067;46.850;7.578;2023-11-21T03:10:49;94826.91;;;7.21;44.20
77871;BME280;67067;46.850;7.578;2023-11-21T03:11:51;94832.56;;;7.12;44.26
77871;BME280;67067;46.850;7.578;2023-11-21T03:12:55;94837.09;;;7.17;44.46
77871;BME280;67067;46.850;7.578;2023-11-21T03:13:59;94842.84;;;7.14;44.77
77871;BME280;67067;46.850;7.578;2023-11-21T03:15:00;94830.56;;;7.02;44.79
77871;BME280;67067;46.850;7.578;2023-11-21T03:16:03;94840.47;;;7.12;44.55
77871;BME280;67067;46.850;7.578;2023-11-21T03:17:05;94833.91;;;7.15;44.18
77871;BME280;67067;46.850;7.578;2023-11-21T03:18:08;94840.69;;;7.11;44.53
77871;BME280;67067;46.850;7.578;2023-11-21T03:19:12;94841.22;;;6.96;45.03
77871;BME280;67067;46.850;7.578;2023-11-21T03:20:13;94846.28;;;6.85;45.28
77871;BME280;67067;46.850;7.578;2023-11-21T03:21:17;94843.16;;;7.00;44.47
77871;BME280;67067;46.850;7.578;2023-11-21T03:22:23;94845.97;;;6.82;45.33
77871;BME280;67067;46.850;7.578;2023-11-21T03:23:25;94842.50;;;6.93;45.25
77871;BME280;67067;46.850;7.578;2023-11-21T03:24:27;94835.47;;;6.82;45.11
77871;BME280;67067;46.850;7.578;2023-11-21T03:25:29;94845.69;;;6.95;45.36
77871;BME280;67067;46.850;7.578;2023-11-21T03:26:30;94846.00;;;6.99;45.16
77871;BME280;67067;46.850;7.578;2023-11-21T03:27:32;94842.06;;;6.84;45.11
77871;BME280;67067;46.850;7.578;2023-11-21T03:28:36;94841.00;;;6.97;45.02
77871;BME280;67067;46.850;7.578;2023-11-21T03:29:38;94838.94;;;6.99;45.01
77871;BME280;67067;46.850;7.578;2023-11-21T03:30:41;94846.09;;;7.04;44.70
77871;BME280;67067;46.850;7.578;2023-11-21T03:31:42;94839.28;;;6.91;45.02
77871;BME280;67067;46.850;7.578;2023-11-21T03:32:44;94846.00;;;6.99;44.69
77871;BME280;67067;46.850;7.578;2023-11-21T03:33:46;94841.09;;;7.02;45.01
77871;BME280;67067;46.850;7.578;2023-11-21T03:34:56;94841.09;;;7.02;44.82
77871;BME280;67067;46.850;7.578;2023-11-21T03:36:00;94843.94;;;7.01;45.05
77871;BME280;67067;46.850;7.578;2023-11-21T03:37:02;94846.81;;;6.99;45.17
77871;BME280;67067;46.850;7.578;2023-11-21T03:38:03;94845.22;;;6.98;44.92
77871;BME280;67067;46.850;7.578;2023-11-21T03:39:08;94844.09;;;6.94;45.08
77871;BME280;67067;46.850;7.578;2023-11-21T03:40:09;94844.94;;;6.83;45.46
77871;BME280;67067;46.850;7.578;2023-11-21T03:41:11;94842.97;;;6.90;45.75
77871;BME280;67067;46.850;7.578;2023-11-21T03:42:13;94841.69;;;6.93;45.57
77871;BME280;67067;46.850;7.578;2023-11-21T03:43:15;94847.53;;;6.95;45.24
77871;BME280;67067;46.850;7.578;2023-11-21T03:44:17;94842.97;;;6.90;45.50
77871;BME280;67067;46.850;7.578;2023-11-21T03:45:19;94856.59;;;6.87;46.10
77871;BME280;67067;46.850;7.578;2023-11-21T03:46:22;94847.56;;;6.83;45.59
77871;BME280;67067;46.850;7.578;2023-11-21T03:47:25;94850.00;;;6.72;46.07
77871;BME280;67067;46.850;7.578;2023-11-21T03:48:27;94853.66;;;6.71;46.30
77871;BME280;67067;46.850;7.578;2023-11-21T03:49:32;94850.38;;;6.64;46.10
77871;BME280;67067;46.850;7.578;2023-11-21T03:50:34;94853.97;;;6.58;46.10
77871;BME280;67067;46.850;7.578;2023-11-21T03:51:36;94848.00;;;6.63;46.29
77871;BME280;67067;46.850;7.578;2023-11-21T03:52:40;94843.53;;;6.63;46.73
77871;BME280;67067;46.850;7.578;2023-11-21T03:53:43;94850.16;;;6.66;46.96
77871;BME280;67067;46.850;7.578;2023-11-21T03:54:44;94843.34;;;6.53;47.34
77871;BME280;67067;46.850;7.578;2023-11-21T03:55:46;94842.50;;;6.64;46.84
77871;BME280;67067;46.850;7.578;2023-11-21T03:56:49;94846.50;;;6.67;47.08
77871;BME280;67067;46.850;7.578;2023-11-21T03:57:53;94840.97;;;6.68;46.89
77871;BME280;67067;46.850;7.578;2023-11-21T03:58:57;94843.41;;;6.70;46.79
77871;BME280;67067;46.850;7.578;2023-11-21T03:59:59;94847.16;;;6.74;46.56
77871;BME280;67067;46.850;7.578;2023-11-21T04:01:00;94846.88;;;6.58;47.35
77871;BME280;67067;46.850;7.578;2023-11-21T04:02:03;94842.91;;;6.73;47.05
77871;BME280;67067;46.850;7.578;2023-11-21T04:03:05;94836.28;;;6.70;47.71
77871;BME280;67067;46.850;7.578;2023-11-21T04:04:07;94840.97;;;6.68;47.95
77871;BME280;67067;46.850;7.578;2023-11-21T04:05:09;94841.81;;;6.69;47.80
77871;BME280;67067;46.850;7.578;2023-11-21T04:06:11;94842.59;;;6.69;47.02
77871;BME280;67067;46.850;7.578;2023-11-21T04:07:13;94848.69;;;6.58;47.04
77871;BME280;67067;46.850;7.578;2023-11-21T04:08:15;94847.06;;;6.69;46.76
77871;BME280;67067;46.850;7.578;2023-11-21T04:09:17;94848.75;;;6.75;46.87
77871;BME280;67067;46.850;7.578;2023-11-21T04:10:19;94851.59;;;6.73;47.43
77871;BME280;67067;46.850;7.578;2023-11-21T04:11:21;94844.84;;;6.78;47.49
77871;BME280;67067;46.850;7.578;2023-11-21T04:12:22;94845.59;;;6.61;47.98
77871;BME280;67067;46.850;7.578;2023-11-21T04:13:24;94853.09;;;6.69;47.78
77871;BME280;67067;46.850;7.578;2023-11-21T04:14:26;94845.22;;;6.69;48.14
77871;BME280;67067;46.850;7.578;2023-11-21T04:15:29;94854.03;;;6.63;48.85
77871;BME280;67067;46.850;7.578;2023-11-21T04:16:30;94848.75;;;6.46;49.21
77871;BME280;67067;46.850;7.578;2023-11-21T04:17:32;94846.34;;;6.44;49.29
77871;BME280;67067;46.850;7.578;2023-11-21T04:18:39;94844.00;;;6.31;49.90
77871;BME280;67067;46.850;7.578;2023-11-21T04:19:41;94842.16;;;6.31;49.04
77871;BME280;67067;46.850;7.578;2023-11-21T04:20:43;94838.78;;;6.19;49.22
77871;BME280;67067;46.850;7.578;2023-11-21T04:21:46;94849.25;;;6.31;49.22
77871;BME280;67067;46.850;7.578;2023-11-21T04:22:51;94841.84;;;6.28;49.34
77871;BME280;67067;46.850;7.578;2023-11-21T04:23:53;94845.63;;;6.20;49.94
77871;BME280;67067;46.850;7.578;2023-11-21T04:24:57;94838.78;;;6.19;50.25
77871;BME280;67067;46.850;7.578;2023-11-21T04:26:00;94839.59;;;6.20;50.36
77871;BME280;67067;46.850;7.578;2023-11-21T04:27:03;94836.84;;;6.14;50.51
77871;BME280;67067;46.850;7.578;2023-11-21T04:28:08;94841.53;;;6.12;50.68
77871;BME280;67067;46.850;7.578;2023-11-21T04:29:10;94836.28;;;6.12;51.10
77871;BME280;67067;46.850;7.578;2023-11-21T04:30:12;94831.84;;;6.01;50.76
77871;BME280;67067;46.850;7.578;2023-11-21T04:31:17;94838.44;;;6.15;50.75
77871;BME280;67067;46.850;7.578;2023-11-21T04:32:19;94838.91;;;6.12;50.46
77871;BME280;67067;46.850;7.578;2023-11-21T04:33:21;94839.63;;;5.96;51.16
77871;BME280;67067;46.850;7.578;2023-11-21T04:34:24;94850.09;;;6.08;50.98
77871;BME280;67067;46.850;7.578;2023-11-21T04:35:25;94848.88;;;6.10;51.03
77871;BME280;67067;46.850;7.578;2023-11-21T04:36:27;94849.09;;;5.97;51.11
77871;BME280;67067;46.850;7.578;2023-11-21T04:37:29;94846.66;;;6.07;50.87
77871;BME280;67067;46.850;7.578;2023-11-21T04:38:31;94853.53;;;6.08;51.16
77871;BME280;67067;46.850;7.578;2023-11-21T04:39:34;94848.50;;;6.07;51.48
77871;BME280;67067;46.850;7.578;2023-11-21T04:40:35;94854.81;;;5.94;51.75
77871;BME280;67067;46.850;7.578;2023-11-21T04:41:40;94853.19;;;6.05;51.96
77871;BME280;67067;46.850;7.578;2023-11-21T04:42:42;94853.00;;;5.94;52.21
77871;BME280;67067;46.850;7.578;2023-11-21T04:43:43;94861.09;;;6.05;51.68
77871;BME280;67067;46.850;7.578;2023-11-21T04:44:45;94854.13;;;6.10;51.80
77871;BME280;67067;46.850;7.578;2023-11-21T04:45:51;94852.28;;;6.11;51.99
77871;BME280;67067;46.850;7.578;2023-11-21T04:46:55;94854.91;;;6.11;52.36
77871;BME280;67067;46.850;7.578;2023-11-21T04:47:58;94854.44;;;6.14;52.54
77871;BME280;67067;46.850;7.578;2023-11-21T04:49:00;94853.66;;;6.13;52.51
77871;BME280;67067;46.850;7.578;2023-11-21T04:50:02;94855.63;;;5.94;52.65
77871;BME280;67067;46.850;7.578;2023-11-21T04:51:08;94855.16;;;6.09;52.73
77871;BME280;67067;46.850;7.578;2023-11-21T04:52:09;94859.59;;;5.97;52.60
77871;BME280;67067;46.850;7.578;2023-11-21T04:53:13;94854.69;;;6.12;52.52
77871;BME280;67067;46.850;7.578;2023-11-21T04:54:16;94860.50;;;6.14;52.64
77871;BME280;67067;46.850;7.578;2023-11-21T04:55:17;94858.00;;;5.96;52.97
77871;BME280;67067;46.850;7.578;2023-11-21T04:56:19;94855.94;;;6.10;52.69
77871;BME280;67067;46.850;7.578;2023-11-21T04:57:21;94860.50;;;6.14;52.53
77871;BME280;67067;46.850;7.578;2023-11-21T04:58:23;94859.13;;;6.00;52.85
77871;BME280;67067;46.850;7.578;2023-11-21T04:59:25;94857.31;;;6.12;52.52
77871;BME280;67067;46.850;7.578;2023-11-21T05:02:18;94860.19;;;5.75;53.33
77871;BME280;67067;46.850;7.578;2023-11-21T05:03:36;94853.13;;;5.64;53.75
77871;BME280;67067;46.850;7.578;2023-11-21T05:04:40;94848.22;;;5.67;53.33
77871;BME280;67067;46.850;7.578;2023-11-21T05:05:44;94855.53;;;5.77;53.20
77871;BME280;67067;46.850;7.578;2023-11-21T05:06:48;94852.00;;;5.59;54.01
77871;BME280;67067;46.850;7.578;2023-11-21T05:07:50;94850.47;;;5.76;53.53
77871;BME280;67067;46.850;7.578;2023-11-21T05:08:52;94854.59;;;5.83;53.27
77871;BME280;67067;46.850;7.578;2023-11-21T05:09:55;94849.69;;;5.87;53.00
77871;BME280;67067;46.850;7.578;2023-11-21T05:10:56;94849.22;;;5.90;53.10
77871;BME280;67067;46.850;7.578;2023-11-21T05:11:58;94848.19;;;5.91;52.93
77871;BME280;67067;46.850;7.578;2023-11-21T05:13:03;94850.13;;;5.96;53.00
77871;BME280;67067;46.850;7.578;2023-11-21T05:14:05;94850.84;;;5.79;53.49
77871;BME280;67067;46.850;7.578;2023-11-21T05:15:08;94850.00;;;5.91;52.97
77871;BME280;67067;46.850;7.578;2023-11-21T05:16:13;94849.34;;;5.95;52.74
77871;BME280;67067;46.850;7.578;2023-11-21T05:17:16;94846.94;;;5.94;53.18
77871;BME280;67067;46.850;7.578;2023-11-21T05:18:18;94853.31;;;5.98;53.09
77871;BME280;67067;46.850;7.578;2023-11-21T05:19:20;94851.25;;;6.00;53.00
77871;BME280;67067;46.850;7.578;2023-11-21T05:20:24;94850.94;;;5.96;53.03
77871;BME280;67067;46.850;7.578;2023-11-21T05:21:29;94862.78;;;5.99;53.26
77871;BME280;67067;46.850;7.578;2023-11-21T05:22:34;94859.03;;;5.95;53.26
77871;BME280;67067;46.850;7.578;2023-11-21T05:23:38;94857.78;;;5.97;53.38
77871;BME280;67067;46.850;7.578;2023-11-21T05:24:43;94862.00;;;5.98;53.14
77871;BME280;67067;46.850;7.578;2023-11-21T05:25:45;94860.41;;;5.97;53.54
77871;BME280;67067;46.850;7.578;2023-11-21T05:26:47;94864.28;;;5.95;53.52
77871;BME280;67067;46.850;7.578;2023-11-21T05:27:49;94857.69;;;5.80;54.01
77871;BME280;67067;46.850;7.578;2023-11-21T05:28:51;94857.13;;;5.90;53.87
77871;BME280;67067;46.850;7.578;2023-11-21T05:29:53;94857.91;;;5.91;53.51
77871;BME280;67067;46.850;7.578;2023-11-21T05:30:57;94859.28;;;5.93;53.62
77871;BME280;67067;46.850;7.578;2023-11-21T05:32:19;94865.00;;;5.90;53.76
77871;BME280;67067;46.850;7.578;2023-11-21T05:33:21;94868.19;;;5.92;53.80
77871;BME280;67067;46.850;7.578;2023-11-21T05:34:22;94860.06;;;5.94;53.57
77871;BME280;67067;46.850;7.578;2023-11-21T05:35:27;94867.16;;;5.93;53.83
77871;BME280;67067;46.850;7.578;2023-11-21T05:36:29;94872.41;;;5.93;53.88
77871;BME280;67067;46.850;7.578;2023-11-21T05:37:31;94872.97;;;5.83;54.26
77871;BME280;67067;46.850;7.578;2023-11-21T05:38:32;94870.81;;;5.92;54.08
77871;BME280;67067;46.850;7.578;2023-11-21T05:39:34;94868.66;;;5.77;54.30
77871;BME280;67067;46.850;7.578;2023-11-21T05:40:37;94872.88;;;5.90;54.43
77871;BME280;67067;46.850;7.578;2023-11-21T05:41:39;94880.06;;;5.95;54.33
77871;BME280;67067;46.850;7.578;2023-11-21T05:42:41;94875.84;;;5.82;54.45
77871;BME280;67067;46.850;7.578;2023-11-21T05:43:43;94880.88;;;5.95;54.30
77871;BME280;67067;46.850;7.578;2023-11-21T05:44:45;94882.78;;;6.00;54.04
77871;BME280;67067;46.850;7.578;2023-11-21T05:45:47;94880.09;;;5.83;54.19
77871;BME280;67067;46.850;7.578;2023-11-21T05:46:48;94888.97;;;5.94;54.15
77871;BME280;67067;46.850;7.578;2023-11-21T05:47:51;94888.97;;;5.94;54.11
77871;BME280;67067;46.850;7.578;2023-11-21T05:48:55;94890.56;;;5.95;53.95
77871;BME280;67067;46.850;7.578;2023-11-21T05:49:56;94892.06;;;5.79;54.26
77871;BME280;67067;46.850;7.578;2023-11-21T05:50:58;94894.09;;;5.88;54.05